sensor_id;sensor_type;location;lat;lon;timestamp;temperature;humidity
17423;DHT22;8829;47.932;7.810;2023-03-24T00:01:48;16.60;99.90
17423;DHT22;8829;47.932;7.810;2023-03-24T00:04:14;16.60;99.90
17423;DHT22;8829;47.932;7.810;2023-03-24T00:06:41;16.60;99.90
17423;DHT22;8829;47.932;7.810;2023-03-24T00:09:08;16.60;99.90
17423;DHT22;8829;47.932;7.810;2023-03-24T00:11:36;16.60;99.90
17423;DHT22;8829;47.932;7.810;2023-03-24T00:14:03;16.70;99.90
17423;DHT22;8829;47.932;7.810;2023-03-24T00:16:30;16.60;99.90
17423;DHT22;8829;47.932;7.810;2023-03-24T00:18:59;16.70;99.90
17423;DHT22;8829;47.932;7.810;2023-03-24T00:21:26;16.70;99.90
17423;DHT22;8829;47.932;7.810;2023-03-24T00:23:54;16.80;99.90
17423;DHT22;8829;47.932;7.810;2023-03-24T00:26:23;16.90;99.90
17423;DHT22;8829;47.932;7.810;2023-03-24T00:28:51;17.00;99.90
17423;DHT22;8829;47.932;7.810;2023-03-24T00:31:18;17.00;99.90
17423;DHT22;8829;47.932;7.810;2023-03-24T00:33:45;17.00;99.90
17423;DHT22;8829;47.932;7.810;2023-03-24T00:36:15;17.00;99.90
17423;DHT22;8829;47.932;7.810;2023-03-24T00:38:44;17.00;99.90
17423;DHT22;8829;47.932;7.810;2023-03-24T00:41:12;17.10;99.90
17423;DHT22;8829;47.932;7.810;2023-03-24T00:43:42;17.10;99.90
17423;DHT22;8829;47.932;7.810;2023-03-24T00:46:12;17.10;99.90
17423;DHT22;8829;47.932;7.810;2023-03-24T00:48:52;17.10;99.90
17423;DHT22;8829;47.932;7.810;2023-03-24T00:51:22;17.10;99.90
17423;DHT22;8829;47.932;7.810;2023-03-24T00:53:49;17.10;99.90
17423;DHT22;8829;47.932;7.810;2023-03-24T00:56:23;17.10;99.90
17423;DHT22;8829;47.932;7.810;2023-03-24T00:58:49;17.10;99.90
17423;DHT22;8829;47.932;7.810;2023-03-24T01:01:17;17.10;99.90
17423;DHT22;8829;47.932;7.810;2023-03-24T01:03:46;17.10;99.90
17423;DHT22;8829;47.932;7.810;2023-03-24T01:06:15;17.10;99.90
17423;DHT22;8829;47.932;7.810;2023-03-24T01:08:42;17.20;99.90
17423;DHT22;8829;47.932;7.810;2023-03-24T01:11:09;17.30;99.90
17423;DHT22;8829;47.932;7.810;2023-03-24T01:13:38;17.30;99.90
17423;DHT22;8829;47.932;7.810;2023-03-24T01:16:06;17.40;99.90
17423;DHT22;8829;47.932;7.810;2023-03-24T01:18:34;17.30;99.90
17423;DHT22;8829;47.932;7.810;2023-03-24T01:21:06;17.30;99.90
17423;DHT22;8829;47.932;7.810;2023-03-24T01:23:33;17.40;99.90
17423;DHT22;8829;47.932;7.810;2023-03-24T01:26:04;17.40;99.90
17423;DHT22;8829;47.932;7.810;2023-03-24T01:28:31;17.50;99.90
17423;DHT22;8829;47.932;7.810;2023-03-24T01:30:57;17.50;99.90
17423;DHT22;8829;47.932;7.810;2023-03-24T01:33:24;17.50;99.90
17423;DHT22;8829;47.932;7.810;2023-03-24T01:35:52;17.50;99.90
17423;DHT22;8829;47.932;7.810;2023-03-24T01:38:19;17.50;99.90
17423;DHT22;8829;47.932;7.810;2023-03-24T01:40:46;17.50;99.90
17423;DHT22;8829;47.932;7.810;2023-03-24T01:43:17;17.50;99.90
17423;DHT22;8829;47.932;7.810;2023-03-24T01:45:56;17.40;99.90
17423;DHT22;8829;47.932;7.810;2023-03-24T01:48:25;17.40;99.90
17423;DHT22;8829;47.932;7.810;2023-03-24T01:50:56;17.40;99.90
17423;DHT22;8829;47.932;7.810;2023-03-24T01:53:24;17.40;99.90
17423;DHT22;8829;47.932;7.810;2023-03-24T01:55:53;17.40;99.90
17423;DHT22;8829;47.932;7.810;2023-03-24T01:58:22;17.40;99.90
17423;DHT22;8829;47.932;7.810;2023-03-24T02:00:49;17.30;99.90
17423;DHT22;8829;47.932;7.810;2023-03-24T02:03:17;17.40;99.90
17423;DHT22;8829;47.932;7.810;2023-03-24T02:05:46;17.30;99.90
17423;DHT22;8829;47.932;7.810;2023-03-24T02:08:21;17.30;99.90
17423;DHT22;8829;47.932;7.810;2023-03-24T02:10:50;17.30;99.90
17423;DHT22;8829;47.932;7.810;2023-03-24T02:13:17;17.30;99.90
17423;DHT22;8829;47.932;7.810;2023-03-24T02:15:53;17.30;99.90
17423;DHT22;8829;47.932;7.810;2023-03-24T02:18:28;17.30;99.90
17423;DHT22;8829;47.932;7.810;2023-03-24T02:27:07;17.20;99.90
17423;DHT22;8829;47.932;7.810;2023-03-24T02:30:02;17.20;99.90
17423;DHT22;8829;47.932;7.810;2023-03-24T02:35:55;17.30;99.90
17423;DHT22;8829;47.932;7.810;2023-03-24T02:38:54;17.30;99.90
17423;DHT22;8829;47.932;7.810;2023-03-24T02:41:28;17.30;99.90
17423;DHT22;8829;47.932;7.810;2023-03-24T02:44:02;17.20;99.90
17423;DHT22;8829;47.932;7.810;2023-03-24T02:46:35;17.20;99.90
17423;DHT22;8829;47.932;7.810;2023-03-24T02:49:09;17.20;99.90
17423;DHT22;8829;47.932;7.810;2023-03-24T02:51:49;17.10;99.90
17423;DHT22;8829;47.932;7.810;2023-03-24T02:54:18;17.10;99.90
17423;DHT22;8829;47.932;7.810;2023-03-24T02:56:51;17.10;99.90
17423;DHT22;8829;47.932;7.810;2023-03-24T02:59:27;17.10;99.90
17423;DHT22;8829;47.932;7.810;2023-03-24T03:01:59;17.10;99.90
17423;DHT22;8829;47.932;7.810;2023-03-24T03:04:30;17.00;99.90
17423;DHT22;8829;47.932;7.810;2023-03-24T03:07:00;17.00;99.90
17423;DHT22;8829;47.932;7.810;2023-03-24T03:09:36;17.00;99.90
17423;DHT22;8829;47.932;7.810;2023-03-24T03:12:07;16.90;99.90
17423;DHT22;8829;47.932;7.810;2023-03-24T03:14:37;16.90;99.90
17423;DHT22;8829;47.932;7.810;2023-03-24T03:17:08;16.80;99.90
17423;DHT22;8829;47.932;7.810;2023-03-24T03:19:39;16.80;99.90
17423;DHT22;8829;47.932;7.810;2023-03-24T03:22:10;16.70;99.90
17423;DHT22;8829;47.932;7.810;2023-03-24T03:24:41;16.70;99.90
17423;DHT22;8829;47.932;7.810;2023-03-24T03:27:15;16.70;99.90
17423;DHT22;8829;47.932;7.810;2023-03-24T03:29:45;16.60;99.90
17423;DHT22;8829;47.932;7.810;2023-03-24T03:32:17;16.60;99.90
17423;DHT22;8829;47.932;7.810;2023-03-24T03:34:48;16.60;99.90
17423;DHT22;8829;47.932;7.810;2023-03-24T03:37:22;16.60;99.90
17423;DHT22;8829;47.932;7.810;2023-03-24T03:39:53;16.60;99.90
17423;DHT22;8829;47.932;7.810;2023-03-24T03:42:23;16.70;99.90
17423;DHT22;8829;47.932;7.810;2023-03-24T03:44:50;16.70;99.90
17423;DHT22;8829;47.932;7.810;2023-03-24T03:47:17;16.70;99.90
17423;DHT22;8829;47.932;7.810;2023-03-24T03:49:46;16.90;99.90
17423;DHT22;8829;47.932;7.810;2023-03-24T03:52:13;17.00;99.90
17423;DHT22;8829;47.932;7.810;2023-03-24T03:54:40;17.10;99.90
17423;DHT22;8829;47.932;7.810;2023-03-24T03:57:09;17.20;99.90
17423;DHT22;8829;47.932;7.810;2023-03-24T03:59:38;16.90;99.90
17423;DHT22;8829;47.932;7.810;2023-03-24T04:02:25;16.70;99.90
17423;DHT22;8829;47.932;7.810;2023-03-24T04:05:03;16.30;99.90
17423;DHT22;8829;47.932;7.810;2023-03-24T04:07:38;16.10;99.90
17423;DHT22;8829;47.932;7.810;2023-03-24T04:10:16;15.70;99.90
17423;DHT22;8829;47.932;7.810;2023-03-24T04:13:01;15.40;99.90
17423;DHT22;8829;47.932;7.810;2023-03-24T04:15:40;15.00;99.90
17423;DHT22;8829;47.932;7.810;2023-03-24T04:18:29;15.00;99.90
17423;DHT22;8829;47.932;7.810;2023-03-24T04:21:07;14.90;99.90
17423;DHT22;8829;47.932;7.810;2023-03-24T04:23:44;14.70;99.90
17423;DHT22;8829;47.932;7.810;2023-03-24T04:26:17;14.40;99.90
17423;DHT22;8829;47.932;7.810;2023-03-24T04:29:01;14.40;99.90
17423;DHT22;8829;47.932;7.810;2023-03-24T04:31:34;14.40;99.90
17423;DHT22;8829;47.932;7.810;2023-03-24T04:34:06;14.30;99.90
17423;DHT22;8829;47.932;7.810;2023-03-24T04:36:41;14.30;99.90
17423;DHT22;8829;47.932;7.810;2023-03-24T04:39:12;14.30;99.90
17423;DHT22;8829;47.932;7.810;2023-03-24T04:41:40;14.20;99.90
17423;DHT22;8829;47.932;7.810;2023-03-24T04:44:08;14.20;99.90
17423;DHT22;8829;47.932;7.810;2023-03-24T04:46:37;14.20;99.90
17423;DHT22;8829;47.932;7.810;2023-03-24T04:49:04;14.10;99.90
17423;DHT22;8829;47.932;7.810;2023-03-24T04:51:32;14.20;99.90
17423;DHT22;8829;47.932;7.810;2023-03-24T04:53:59;14.10;99.90
17423;DHT22;8829;47.932;7.810;2023-03-24T04:56:30;14.10;99.90
17423;DHT22;8829;47.932;7.810;2023-03-24T04:58:58;14.10;99.90
17423;DHT22;8829;47.932;7.810;2023-03-24T05:01:25;14.10;99.90
17423;DHT22;8829;47.932;7.810;2023-03-24T05:03:56;14.10;99.90
17423;DHT22;8829;47.932;7.810;2023-03-24T05:06:23;14.00;99.90
17423;DHT22;8829;47.932;7.810;2023-03-24T05:08:50;14.00;99.90
17423;DHT22;8829;47.932;7.810;2023-03-24T05:11:17;13.90;99.90
17423;DHT22;8829;47.932;7.810;2023-03-24T05:13:45;13.90;99.90
17423;DHT22;8829;47.932;7.810;2023-03-24T05:16:12;14.00;99.90
17423;DHT22;8829;47.932;7.810;2023-03-24T05:18:40;14.10;99.90
17423;DHT22;8829;47.932;7.810;2023-03-24T05:21:08;14.00;99.90
17423;DHT22;8829;47.932;7.810;2023-03-24T05:23:35;14.10;99.90
17423;DHT22;8829;47.932;7.810;2023-03-24T05:26:02;14.00;99.90
17423;DHT22;8829;47.932;7.810;2023-03-24T05:28:29;14.00;99.90
17423;DHT22;8829;47.932;7.810;2023-03-24T05:30:56;14.10;99.90
17423;DHT22;8829;47.932;7.810;2023-03-24T05:33:23;14.20;99.90
17423;DHT22;8829;47.932;7.810;2023-03-24T05:35:50;14.30;99.90
17423;DHT22;8829;47.932;7.810;2023-03-24T05:38:18;14.30;99.90
17423;DHT22;8829;47.932;7.810;2023-03-24T05:40:45;14.30;99.90
17423;DHT22;8829;47.932;7.810;2023-03-24T05:43:11;14.20;99.90
17423;DHT22;8829;47.932;7.810;2023-03-24T05:45:38;14.20;99.90
17423;DHT22;8829;47.932;7.810;2023-03-24T05:48:05;14.20;99.90
17423;DHT22;8829;47.932;7.810;2023-03-24T05:50:32;14.10;99.90
17423;DHT22;8829;47.932;7.810;2023-03-24T05:52:59;14.00;99.90
17423;DHT22;8829;47.932;7.810;2023-03-24T05:55:27;14.00;99.90
17423;DHT22;8829;47.932;7.810;2023-03-24T05:57:55;14.10;99.90
17423;DHT22;8829;47.932;7.810;2023-03-24T06:00:21;14.00;99.90
17423;DHT22;8829;47.932;7.810;2023-03-24T06:02:49;13.80;99.90
17423;DHT22;8829;47.932;7.810;2023-03-24T06:05:15;13.80;99.90
17423;DHT22;8829;47.932;7.810;2023-03-24T06:07:42;13.90;99.90
17423;DHT22;8829;47.932;7.810;2023-03-24T06:10:10;13.80;99.90
17423;DHT22;8829;47.932;7.810;2023-03-24T06:12:40;13.70;99.90
17423;DHT22;8829;47.932;7.810;2023-03-24T06:15:08;13.70;99.90
17423;DHT22;8829;47.932;7.810;2023-03-24T06:17:35;13.70;99.90
17423;DHT22;8829;47.932;7.810;2023-03-24T06:20:03;13.60;99.90
17423;DHT22;8829;47.932;7.810;2023-03-24T06:22:35;13.60;99.90
17423;DHT22;8829;47.932;7.810;2023-03-24T06:25:03;13.60;99.90
17423;DHT22;8829;47.932;7.810;2023-03-24T06:27:30;13.60;99.90
17423;DHT22;8829;47.932;7.810;2023-03-24T06:29:58;13.50;99.90
17423;DHT22;8829;47.932;7.810;2023-03-24T06:32:25;13.40;99.90
17423;DHT22;8829;47.932;7.810;2023-03-24T06:34:52;13.40;99.90
17423;DHT22;8829;47.932;7.810;2023-03-24T06:37:21;13.40;99.90
17423;DHT22;8829;47.932;7.810;2023-03-24T06:39:48;13.40;99.90
17423;DHT22;8829;47.932;7.810;2023-03-24T06:42:15;13.40;99.90
17423;DHT22;8829;47.932;7.810;2023-03-24T06:44:42;13.40;99.90
17423;DHT22;8829;47.932;7.810;2023-03-24T06:47:11;13.50;99.90
17423;DHT22;8829;47.932;7.810;2023-03-24T06:49:37;13.60;99.90
17423;DHT22;8829;47.932;7.810;2023-03-24T06:52:04;13.60;99.90
17423;DHT22;8829;47.932;7.810;2023-03-24T06:54:31;13.60;99.90
17423;DHT22;8829;47.932;7.810;2023-03-24T06:56:58;13.60;99.90
17423;DHT22;8829;47.932;7.810;2023-03-24T06:59:24;13.40;99.90
17423;DHT22;8829;47.932;7.810;2023-03-24T07:01:52;13.20;99.90
17423;DHT22;8829;47.932;7.810;2023-03-24T07:04:21;13.10;99.90
17423;DHT22;8829;47.932;7.810;2023-03-24T07:06:50;13.10;99.90
17423;DHT22;8829;47.932;7.810;2023-03-24T07:09:16;13.10;99.90
17423;DHT22;8829;47.932;7.810;2023-03-24T07:11:44;13.10;99.90
17423;DHT22;8829;47.932;7.810;2023-03-24T07:14:10;13.10;99.90
17423;DHT22;8829;47.932;7.810;2023-03-24T07:16:37;13.10;99.90
17423;DHT22;8829;47.932;7.810;2023-03-24T07:19:04;13.10;99.90
17423;DHT22;8829;47.932;7.810;2023-03-24T07:21:32;13.10;99.90
17423;DHT22;8829;47.932;7.810;2023-03-24T07:23:58;13.10;99.90
17423;DHT22;8829;47.932;7.810;2023-03-24T07:26:26;13.10;99.90
17423;DHT22;8829;47.932;7.810;2023-03-24T07:28:53;13.10;99.90
17423;DHT22;8829;47.932;7.810;2023-03-24T07:31:20;13.10;99.90
17423;DHT22;8829;47.932;7.810;2023-03-24T07:33:47;13.10;99.90
17423;DHT22;8829;47.932;7.810;2023-03-24T07:36:14;13.10;99.90
17423;DHT22;8829;47.932;7.810;2023-03-24T07:38:42;13.10;99.90
17423;DHT22;8829;47.932;7.810;2023-03-24T07:41:09;13.00;99.90
17423;DHT22;8829;47.932;7.810;2023-03-24T07:43:35;13.00;99.90
17423;DHT22;8829;47.932;7.810;2023-03-24T07:46:02;12.30;99.90
17423;DHT22;8829;47.932;7.810;2023-03-24T07:48:29;12.90;99.90
17423;DHT22;8829;47.932;7.810;2023-03-24T07:50:56;12.90;99.90
17423;DHT22;8829;47.932;7.810;2023-03-24T07:53:23;13.00;99.90
17423;DHT22;8829;47.932;7.810;2023-03-24T07:55:51;13.00;99.90
17423;DHT22;8829;47.932;7.810;2023-03-24T07:58:17;12.90;99.90
17423;DHT22;8829;47.932;7.810;2023-03-24T08:00:44;12.90;99.90
17423;DHT22;8829;47.932;7.810;2023-03-24T08:03:12;13.00;99.90
17423;DHT22;8829;47.932;7.810;2023-03-24T08:05:40;12.90;99.90
17423;DHT22;8829;47.932;7.810;2023-03-24T08:08:07;12.90;99.90
17423;DHT22;8829;47.932;7.810;2023-03-24T08:10:34;12.90;99.90
17423;DHT22;8829;47.932;7.810;2023-03-24T08:13:02;12.90;99.90
17423;DHT22;8829;47.932;7.810;2023-03-24T08:15:30;12.90;99.90
17423;DHT22;8829;47.932;7.810;2023-03-24T08:17:56;12.90;99.90
17423;DHT22;8829;47.932;7.810;2023-03-24T08:20:23;12.90;99.90
17423;DHT22;8829;47.932;7.810;2023-03-24T08:22:52;12.90;99.90
17423;DHT22;8829;47.932;7.810;2023-03-24T08:25:21;12.90;99.90
17423;DHT22;8829;47.932;7.810;2023-03-24T08:27:48;13.00;99.90
17423;DHT22;8829;47.932;7.810;2023-03-24T08:30:19;13.00;99.90
17423;DHT22;8829;47.932;7.810;2023-03-24T08:32:48;13.10;99.90
17423;DHT22;8829;47.932;7.810;2023-03-24T08:35:17;13.10;99.90
17423;DHT22;8829;47.932;7.810;2023-03-24T08:37:44;13.10;99.90
17423;DHT22;8829;47.932;7.810;2023-03-24T08:40:13;13.20;99.90
17423;DHT22;8829;47.932;7.810;2023-03-24T08:42:43;13.30;99.90
17423;DHT22;8829;47.932;7.810;2023-03-24T08:45:11;13.40;99.90
17423;DHT22;8829;47.932;7.810;2023-03-24T08:47:39;13.40;99.90
17423;DHT22;8829;47.932;7.810;2023-03-24T08:50:08;13.40;99.90
17423;DHT22;8829;47.932;7.810;2023-03-24T08:52:35;13.30;99.90
17423;DHT22;8829;47.932;7.810;2023-03-24T08:55:02;13.40;99.90
17423;DHT22;8829;47.932;7.810;2023-03-24T08:57:29;13.50;99.90
17423;DHT22;8829;47.932;7.810;2023-03-24T08:59:56;13.50;99.90
17423;DHT22;8829;47.932;7.810;2023-03-24T09:02:22;13.60;99.90
17423;DHT22;8829;47.932;7.810;2023-03-24T09:04:50;13.50;99.90
17423;DHT22;8829;47.932;7.810;2023-03-24T09:07:20;13.60;99.90
17423;DHT22;8829;47.932;7.810;2023-03-24T09:09:47;13.60;99.90
17423;DHT22;8829;47.932;7.810;2023-03-24T09:12:14;13.70;99.90
17423;DHT22;8829;47.932;7.810;2023-03-24T09:14:46;13.80;99.90
17423;DHT22;8829;47.932;7.810;2023-03-24T09:17:13;13.80;99.90
17423;DHT22;8829;47.932;7.810;2023-03-24T09:19:40;13.80;99.90
17423;DHT22;8829;47.932;7.810;2023-03-24T09:22:08;13.80;99.90
17423;DHT22;8829;47.932;7.810;2023-03-24T09:24:35;13.90;99.90
17423;DHT22;8829;47.932;7.810;2023-03-24T09:27:02;13.90;99.90
17423;DHT22;8829;47.932;7.810;2023-03-24T09:29:29;13.90;99.90
17423;DHT22;8829;47.932;7.810;2023-03-24T09:31:56;14.00;99.90
17423;DHT22;8829;47.932;7.810;2023-03-24T09:34:23;14.00;99.90
17423;DHT22;8829;47.932;7.810;2023-03-24T09:36:50;14.00;99.90
17423;DHT22;8829;47.932;7.810;2023-03-24T09:39:18;14.00;99.90
17423;DHT22;8829;47.932;7.810;2023-03-24T09:41:45;13.90;99.90
17423;DHT22;8829;47.932;7.810;2023-03-24T09:44:22;13.90;99.90
17423;DHT22;8829;47.932;7.810;2023-03-24T09:46:53;13.90;99.90
17423;DHT22;8829;47.932;7.810;2023-03-24T09:49:26;13.80;99.90
17423;DHT22;8829;47.932;7.810;2023-03-24T09:51:55;13.80;99.90
17423;DHT22;8829;47.932;7.810;2023-03-24T09:54:30;13.70;99.90
17423;DHT22;8829;47.932;7.810;2023-03-24T09:57:01;13.70;99.90
17423;DHT22;8829;47.932;7.810;2023-03-24T09:59:33;13.70;99.90
17423;DHT22;8829;47.932;7.810;2023-03-24T10:02:09;13.70;99.90
17423;DHT22;8829;47.932;7.810;2023-03-24T10:04:36;13.70;99.90
17423;DHT22;8829;47.932;7.810;2023-03-24T10:07:08;13.70;99.90
17423;DHT22;8829;47.932;7.810;2023-03-24T10:09:40;13.50;99.90
17423;DHT22;8829;47.932;7.810;2023-03-24T10:12:19;13.50;99.90
17423;DHT22;8829;47.932;7.810;2023-03-24T10:14:57;13.40;99.90
17423;DHT22;8829;47.932;7.810;2023-03-24T10:17:33;13.30;99.90
17423;DHT22;8829;47.932;7.810;2023-03-24T10:20:12;13.20;99.90
17423;DHT22;8829;47.932;7.810;2023-03-24T10:22:44;13.10;99.90
17423;DHT22;8829;47.932;7.810;2023-03-24T10:25:19;13.00;99.90
17423;DHT22;8829;47.932;7.810;2023-03-24T10:27:52;12.90;99.90
17423;DHT22;8829;47.932;7.810;2023-03-24T10:30:23;12.80;99.90
17423;DHT22;8829;47.932;7.810;2023-03-24T10:32:51;12.70;99.90
17423;DHT22;8829;47.932;7.810;2023-03-24T10:35:22;12.70;99.90
17423;DHT22;8829;47.932;7.810;2023-03-24T10:37:50;12.60;99.90
17423;DHT22;8829;47.932;7.810;2023-03-24T10:40:21;12.60;99.90
17423;DHT22;8829;47.932;7.810;2023-03-24T10:42:50;12.60;99.90
17423;DHT22;8829;47.932;7.810;2023-03-24T10:45:24;12.50;99.90
17423;DHT22;8829;47.932;7.810;2023-03-24T10:47:52;12.50;99.90
17423;DHT22;8829;47.932;7.810;2023-03-24T10:50:23;12.50;99.90
17423;DHT22;8829;47.932;7.810;2023-03-24T10:52:50;12.50;99.90
17423;DHT22;8829;47.932;7.810;2023-03-24T10:55:21;12.60;99.90
17423;DHT22;8829;47.932;7.810;2023-03-24T10:57:51;12.60;99.90
17423;DHT22;8829;47.932;7.810;2023-03-24T11:00:21;12.60;99.90
17423;DHT22;8829;47.932;7.810;2023-03-24T11:02:56;12.60;99.90
17423;DHT22;8829;47.932;7.810;2023-03-24T11:05:27;12.60;99.90
17423;DHT22;8829;47.932;7.810;2023-03-24T11:08:01;12.70;99.90
17423;DHT22;8829;47.932;7.810;2023-03-24T11:10:38;12.60;99.90
17423;DHT22;8829;47.932;7.810;2023-03-24T11:13:16;12.70;99.90
17423;DHT22;8829;47.932;7.810;2023-03-24T11:15:53;12.60;99.90
17423;DHT22;8829;47.932;7.810;2023-03-24T11:18:21;12.60;99.90
17423;DHT22;8829;47.932;7.810;2023-03-24T11:20:51;12.70;99.90
17423;DHT22;8829;47.932;7.810;2023-03-24T11:23:25;12.80;99.90
17423;DHT22;8829;47.932;7.810;2023-03-24T11:26:04;12.80;99.90
17423;DHT22;8829;47.932;7.810;2023-03-24T11:28:36;12.90;99.90
17423;DHT22;8829;47.932;7.810;2023-03-24T11:31:06;13.10;99.90
17423;DHT22;8829;47.932;7.810;2023-03-24T11:33:40;13.30;99.90
17423;DHT22;8829;47.932;7.810;2023-03-24T11:36:46;13.20;99.90
17423;DHT22;8829;47.932;7.810;2023-03-24T11:39:16;13.30;99.90
17423;DHT22;8829;47.932;7.810;2023-03-24T11:42:01;13.20;99.90
17423;DHT22;8829;47.932;7.810;2023-03-24T11:44:30;13.10;99.90
17423;DHT22;8829;47.932;7.810;2023-03-24T11:47:01;13.10;99.90
17423;DHT22;8829;47.932;7.810;2023-03-24T11:49:30;13.10;99.90
17423;DHT22;8829;47.932;7.810;2023-03-24T11:51:58;13.10;99.90
17423;DHT22;8829;47.932;7.810;2023-03-24T11:54:28;13.00;99.90
17423;DHT22;8829;47.932;7.810;2023-03-24T11:56:59;13.00;99.90
17423;DHT22;8829;47.932;7.810;2023-03-24T11:59:35;13.00;99.90
17423;DHT22;8829;47.932;7.810;2023-03-24T12:02:19;13.00;99.90
17423;DHT22;8829;47.932;7.810;2023-03-24T12:05:02;13.10;99.90
17423;DHT22;8829;47.932;7.810;2023-03-24T12:07:55;13.20;99.90
17423;DHT22;8829;47.932;7.810;2023-03-24T12:10:39;13.20;99.90
17423;DHT22;8829;47.932;7.810;2023-03-24T12:13:14;13.20;99.90
17423;DHT22;8829;47.932;7.810;2023-03-24T12:15:55;13.30;99.90
17423;DHT22;8829;47.932;7.810;2023-03-24T12:18:35;13.40;99.90
17423;DHT22;8829;47.932;7.810;2023-03-24T12:21:09;13.50;99.90
17423;DHT22;8829;47.932;7.810;2023-03-24T12:23:43;13.40;99.90
17423;DHT22;8829;47.932;7.810;2023-03-24T12:26:16;13.20;99.90
17423;DHT22;8829;47.932;7.810;2023-03-24T12:28:54;13.20;99.90
17423;DHT22;8829;47.932;7.810;2023-03-24T12:37:12;13.20;99.90
17423;DHT22;8829;47.932;7.810;2023-03-24T12:39:49;13.20;99.90
17423;DHT22;8829;47.932;7.810;2023-03-24T12:42:19;13.10;99.90
17423;DHT22;8829;47.932;7.810;2023-03-24T12:45:25;13.10;99.90
17423;DHT22;8829;47.932;7.810;2023-03-24T12:48:10;13.00;99.90
17423;DHT22;8829;47.932;7.810;2023-03-24T12:50:52;12.80;99.90
17423;DHT22;8829;47.932;7.810;2023-03-24T12:53:37;12.70;99.90
17423;DHT22;8829;47.932;7.810;2023-03-24T12:56:10;12.60;99.90
17423;DHT22;8829;47.932;7.810;2023-03-24T12:58:42;12.50;99.90
17423;DHT22;8829;47.932;7.810;2023-03-24T13:01:18;12.40;99.90
17423;DHT22;8829;47.932;7.810;2023-03-24T13:03:52;12.50;99.90
17423;DHT22;8829;47.932;7.810;2023-03-24T13:06:23;12.50;99.90
17423;DHT22;8829;47.932;7.810;2023-03-24T13:09:04;12.40;99.90
17423;DHT22;8829;47.932;7.810;2023-03-24T13:11:37;12.30;99.90
17423;DHT22;8829;47.932;7.810;2023-03-24T13:14:13;12.30;99.90
17423;DHT22;8829;47.932;7.810;2023-03-24T13:16:43;12.30;99.90
17423;DHT22;8829;47.932;7.810;2023-03-24T13:19:17;12.40;99.90
17423;DHT22;8829;47.932;7.810;2023-03-24T13:21:45;12.50;99.90
17423;DHT22;8829;47.932;7.810;2023-03-24T13:24:13;12.50;99.90
17423;DHT22;8829;47.932;7.810;2023-03-24T13:26:43;12.50;99.90
17423;DHT22;8829;47.932;7.810;2023-03-24T13:29:23;12.50;99.90
17423;DHT22;8829;47.932;7.810;2023-03-24T13:31:55;12.50;99.90
17423;DHT22;8829;47.932;7.810;2023-03-24T13:34:26;12.40;99.90
17423;DHT22;8829;47.932;7.810;2023-03-24T13:36:57;12.40;99.90
17423;DHT22;8829;47.932;7.810;2023-03-24T13:39:26;12.30;99.90
17423;DHT22;8829;47.932;7.810;2023-03-24T13:41:55;12.40;99.90
17423;DHT22;8829;47.932;7.810;2023-03-24T13:44:25;12.40;99.90
17423;DHT22;8829;47.932;7.810;2023-03-24T13:47:12;12.40;99.90
17423;DHT22;8829;47.932;7.810;2023-03-24T13:49:42;12.40;99.90
17423;DHT22;8829;47.932;7.810;2023-03-24T13:52:22;12.40;99.90
17423;DHT22;8829;47.932;7.810;2023-03-24T13:54:53;12.30;99.90
17423;DHT22;8829;47.932;7.810;2023-03-24T13:57:21;12.20;99.90
17423;DHT22;8829;47.932;7.810;2023-03-24T14:00:02;12.00;99.90
17423;DHT22;8829;47.932;7.810;2023-03-24T14:02:45;12.00;99.90
17423;DHT22;8829;47.932;7.810;2023-03-24T14:05:30;11.90;99.90
17423;DHT22;8829;47.932;7.810;2023-03-24T14:08:12;11.90;99.90
17423;DHT22;8829;47.932;7.810;2023-03-24T14:10:42;11.90;99.90
17423;DHT22;8829;47.932;7.810;2023-03-24T14:13:44;11.90;99.90
17423;DHT22;8829;47.932;7.810;2023-03-24T14:16:41;11.90;99.90
17423;DHT22;8829;47.932;7.810;2023-03-24T14:19:19;12.00;99.90
17423;DHT22;8829;47.932;7.810;2023-03-24T14:21:57;12.00;99.90
17423;DHT22;8829;47.932;7.810;2023-03-24T14:24:26;12.00;99.90
17423;DHT22;8829;47.932;7.810;2023-03-24T14:26:54;12.20;99.90
17423;DHT22;8829;47.932;7.810;2023-03-24T14:29:36;12.20;99.90
17423;DHT22;8829;47.932;7.810;2023-03-24T14:32:04;12.20;99.90
17423;DHT22;8829;47.932;7.810;2023-03-24T14:34:33;12.20;99.90
17423;DHT22;8829;47.932;7.810;2023-03-24T14:37:02;12.20;99.90
17423;DHT22;8829;47.932;7.810;2023-03-24T14:39:38;12.10;99.90
17423;DHT22;8829;47.932;7.810;2023-03-24T14:45:39;12.10;99.90
17423;DHT22;8829;47.932;7.810;2023-03-24T14:48:20;12.10;99.90
17423;DHT22;8829;47.932;7.810;2023-03-24T14:50:50;12.00;99.90
17423;DHT22;8829;47.932;7.810;2023-03-24T14:53:19;12.10;99.90
17423;DHT22;8829;47.932;7.810;2023-03-24T14:55:47;12.10;99.90
17423;DHT22;8829;47.932;7.810;2023-03-24T14:58:20;12.10;99.90
17423;DHT22;8829;47.932;7.810;2023-03-24T15:00:50;12.10;99.90
17423;DHT22;8829;47.932;7.810;2023-03-24T15:03:21;12.10;99.90
17423;DHT22;8829;47.932;7.810;2023-03-24T15:05:53;12.10;99.90
17423;DHT22;8829;47.932;7.810;2023-03-24T15:08:22;12.10;99.90
17423;DHT22;8829;47.932;7.810;2023-03-24T15:10:54;12.10;99.90
17423;DHT22;8829;47.932;7.810;2023-03-24T15:13:29;12.00;99.90
17423;DHT22;8829;47.932;7.810;2023-03-24T15:15:57;12.00;99.90
17423;DHT22;8829;47.932;7.810;2023-03-24T15:18:24;12.00;99.90
17423;DHT22;8829;47.932;7.810;2023-03-24T15:20:53;12.10;99.90
17423;DHT22;8829;47.932;7.810;2023-03-24T15:23:21;12.10;99.90
17423;DHT22;8829;47.932;7.810;2023-03-24T15:25:48;12.30;99.90
17423;DHT22;8829;47.932;7.810;2023-03-24T15:28:18;12.30;99.90
17423;DHT22;8829;47.932;7.810;2023-03-24T15:30:46;12.40;99.90
17423;DHT22;8829;47.932;7.810;2023-03-24T15:33:12;12.50;99.90
17423;DHT22;8829;47.932;7.810;2023-03-24T15:35:40;12.60;99.90
17423;DHT22;8829;47.932;7.810;2023-03-24T15:38:17;12.60;99.90
17423;DHT22;8829;47.932;7.810;2023-03-24T15:40:55;12.50;99.90
17423;DHT22;8829;47.932;7.810;2023-03-24T15:43:22;12.60;99.90
17423;DHT22;8829;47.932;7.810;2023-03-24T15:45:51;12.70;99.90
17423;DHT22;8829;47.932;7.810;2023-03-24T15:48:21;12.70;99.90
17423;DHT22;8829;47.932;7.810;2023-03-24T15:50:58;12.80;99.90
17423;DHT22;8829;47.932;7.810;2023-03-24T15:53:28;12.70;99.90
17423;DHT22;8829;47.932;7.810;2023-03-24T15:56:04;12.70;99.90
17423;DHT22;8829;47.932;7.810;2023-03-24T15:58:44;12.60;99.90
17423;DHT22;8829;47.932;7.810;2023-03-24T16:01:11;12.50;99.90
17423;DHT22;8829;47.932;7.810;2023-03-24T16:03:42;12.40;99.90
17423;DHT22;8829;47.932;7.810;2023-03-24T16:06:13;12.40;99.90
17423;DHT22;8829;47.932;7.810;2023-03-24T16:08:42;12.40;99.90
17423;DHT22;8829;47.932;7.810;2023-03-24T16:11:11;12.40;99.90
17423;DHT22;8829;47.932;7.810;2023-03-24T16:13:39;12.40;99.90
17423;DHT22;8829;47.932;7.810;2023-03-24T16:16:18;12.30;99.90
17423;DHT22;8829;47.932;7.810;2023-03-24T16:18:48;12.30;99.90
17423;DHT22;8829;47.932;7.810;2023-03-24T16:21:17;12.30;99.90
17423;DHT22;8829;47.932;7.810;2023-03-24T16:23:46;12.30;99.90
17423;DHT22;8829;47.932;7.810;2023-03-24T16:26:14;12.30;99.90
17423;DHT22;8829;47.932;7.810;2023-03-24T16:28:41;12.30;99.90